createdAt,value
2023-01-17T00:00:43.554Z,3.4
2023-01-17T00:01:44.520Z,3.3
2023-01-17T00:02:45.540Z,3.4
2023-01-17T00:03:46.626Z,3.3
2023-01-17T00:04:47.838Z,3.4
2023-01-17T00:05:49.573Z,3.6
2023-01-17T00:06:50.554Z,3.8
2023-01-17T00:07:51.497Z,3.9
2023-01-17T00:08:52.554Z,4
2023-01-17T00:09:53.544Z,4.1
2023-01-17T00:10:54.557Z,4.2
2023-01-17T00:11:55.554Z,4.3
2023-01-17T00:12:56.552Z,4.3
2023-01-17T00:13:57.601Z,4.2
2023-01-17T00:14:58.598Z,4.2
2023-01-17T00:15:59.620Z,4.1
2023-01-17T00:17:00.595Z,4
2023-01-17T00:18:01.652Z,3.8
2023-01-17T00:19:02.576Z,3.8
2023-01-17T00:20:03.614Z,3.7
2023-01-17T00:21:04.614Z,3.7
2023-01-17T00:22:05.553Z,3.7
2023-01-17T00:23:06.554Z,3.7
2023-01-17T00:24:10.315Z,3.6
2023-01-17T00:25:11.544Z,3.7
2023-01-17T00:26:12.575Z,3.8
2023-01-17T00:27:13.596Z,3.9
2023-01-17T00:28:14.612Z,3.9
2023-01-17T00:29:15.601Z,3.8
2023-01-17T00:30:16.573Z,3.7
2023-01-17T00:31:17.601Z,3.7
2023-01-17T00:32:18.557Z,3.7
2023-01-17T00:33:19.633Z,3.7
2023-01-17T00:34:20.574Z,3.7
2023-01-17T00:35:21.653Z,3.6
2023-01-17T00:36:22.574Z,3.5
2023-01-17T00:37:23.533Z,3.6
2023-01-17T00:38:24.604Z,3.6
2023-01-17T00:39:25.553Z,3.5
2023-01-17T00:40:26.528Z,3.5
2023-01-17T00:41:27.558Z,3.5
2023-01-17T00:42:28.614Z,3.6
2023-01-17T00:43:29.593Z,3.6
2023-01-17T00:44:30.623Z,3.6
2023-01-17T00:45:31.941Z,3.5
2023-01-17T00:46:33.916Z,3.5
2023-01-17T00:47:34.614Z,3.6
2023-01-17T00:48:35.561Z,3.6
2023-01-17T00:49:36.611Z,3.5
2023-01-17T00:50:37.557Z,3.4
2023-01-17T00:51:38.663Z,3.5
2023-01-17T00:52:39.574Z,3.5
2023-01-17T00:53:40.573Z,3.7
2023-01-17T00:54:41.578Z,3.8
2023-01-17T00:55:42.573Z,3.9
2023-01-17T00:56:43.653Z,3.9
2023-01-17T00:57:44.552Z,4
2023-01-17T00:58:45.593Z,3.9
2023-01-17T00:59:46.608Z,3.9
2023-01-17T01:00:47.911Z,3.8
2023-01-17T01:01:49.825Z,3.8
2023-01-17T01:02:50.599Z,3.7
2023-01-17T01:03:51.595Z,3.7
2023-01-17T01:04:52.701Z,3.7
2023-01-17T01:05:53.615Z,3.7
2023-01-17T01:06:54.653Z,3.6
2023-01-17T01:07:55.613Z,3.7
2023-01-17T01:08:56.571Z,3.7
2023-01-17T01:09:57.575Z,3.8
2023-01-17T01:10:58.595Z,3.9
2023-01-17T01:11:59.593Z,4
2023-01-17T01:13:00.595Z,3.9
2023-01-17T01:14:01.559Z,3.9
2023-01-17T01:15:02.670Z,3.7
2023-01-17T01:16:03.647Z,3.7
2023-01-17T01:17:04.592Z,3.7
2023-01-17T01:18:05.593Z,3.6
2023-01-17T01:19:06.583Z,3.6
2023-01-17T01:20:07.594Z,3.6
2023-01-17T01:21:08.633Z,3.6
2023-01-17T01:22:09.595Z,3.6
2023-01-17T01:23:10.594Z,3.6
2023-01-17T01:24:11.580Z,3.6
2023-01-17T01:25:12.587Z,3.6
2023-01-17T01:26:13.633Z,3.6
2023-01-17T01:27:14.628Z,3.5
2023-01-17T01:28:15.634Z,3.3
2023-01-17T01:29:16.613Z,3.2
2023-01-17T01:30:17.603Z,3.2
2023-01-17T01:31:18.747Z,3.2
2023-01-17T01:32:19.595Z,3.2
2023-01-17T01:33:20.642Z,3.2
2023-01-17T01:34:21.679Z,3.1
2023-01-17T01:35:22.597Z,3.1
2023-01-17T01:36:23.574Z,3.1
2023-01-17T01:37:24.598Z,3.1
2023-01-17T01:38:25.638Z,3.1
2023-01-17T01:39:26.575Z,3.1
2023-01-17T01:40:27.599Z,3
2023-01-17T01:41:28.597Z,3.1
2023-01-17T01:42:29.593Z,3.2
2023-01-17T01:43:30.612Z,3.2
2023-01-17T01:44:31.597Z,3.2
2023-01-17T01:45:32.729Z,3.2
2023-01-17T01:46:33.678Z,3.1
2023-01-17T01:47:34.573Z,3.2
2023-01-17T01:48:35.626Z,3.1
2023-01-17T01:49:36.615Z,3.2
2023-01-17T01:50:37.635Z,3.2
2023-01-17T01:51:38.675Z,3.2
2023-01-17T01:52:39.616Z,3.1
2023-01-17T01:53:40.616Z,3.1
2023-01-17T01:54:41.635Z,3.2
2023-01-17T01:55:42.577Z,3.1
2023-01-17T01:56:43.680Z,3.2
2023-01-17T01:57:44.613Z,3.1
2023-01-17T01:58:45.616Z,2.9
2023-01-17T01:59:46.633Z,3
2023-01-17T02:00:48.009Z,2.9
2023-01-17T02:01:48.797Z,2.9
2023-01-17T02:02:49.593Z,2.9
2023-01-17T02:07:18.653Z,3.2
2023-01-17T02:08:19.553Z,3.3
2023-01-17T02:09:20.595Z,3.2
2023-01-17T02:10:21.651Z,3.1
2023-01-17T02:11:22.639Z,3.1
2023-01-17T02:12:23.640Z,3
2023-01-17T02:13:24.577Z,3.1
2023-01-17T02:14:25.629Z,3
2023-01-17T02:15:26.674Z,3
2023-01-17T02:16:27.696Z,3.1
2023-01-17T02:17:28.638Z,3.2
2023-01-17T02:18:29.613Z,3.3
2023-01-17T02:19:30.605Z,3.4
2023-01-17T02:20:31.712Z,3.3
2023-01-17T02:21:32.635Z,3.3
2023-01-17T02:22:33.633Z,3.2
2023-01-17T02:23:34.636Z,3.1
2023-01-17T02:24:35.615Z,3
2023-01-17T02:25:36.654Z,3
2023-01-17T02:26:37.616Z,3
2023-01-17T02:27:38.635Z,3
2023-01-17T02:28:39.603Z,3
2023-01-17T02:29:40.713Z,3.1
2023-01-17T02:30:41.688Z,3.1
2023-01-17T02:31:42.691Z,3.1
2023-01-17T02:32:43.855Z,3
2023-01-17T02:33:45.602Z,3.1
2023-01-17T02:34:46.639Z,3
2023-01-17T02:35:47.960Z,3
2023-01-17T02:36:49.673Z,3
2023-01-17T02:37:50.708Z,2.9
2023-01-17T02:38:51.721Z,2.9
2023-01-17T02:39:52.642Z,2.8
2023-01-17T02:40:53.642Z,2.8
2023-01-17T02:41:54.635Z,2.9
2023-01-17T02:42:55.597Z,2.9
2023-01-17T02:43:56.654Z,2.8
2023-01-17T02:44:57.676Z,2.8
2023-01-17T02:45:58.698Z,2.9
2023-01-17T02:46:59.659Z,2.9
2023-01-17T02:48:00.633Z,2.9
2023-01-17T02:49:01.670Z,2.9
2023-01-17T02:50:02.677Z,2.9
2023-01-17T02:51:03.614Z,3
2023-01-17T02:52:04.653Z,3
2023-01-17T02:53:05.633Z,3
2023-01-17T02:54:06.618Z,3
2023-01-17T02:55:07.624Z,3
2023-01-17T02:56:08.668Z,3
2023-01-17T02:57:09.626Z,3
2023-01-17T02:58:10.633Z,3
2023-01-17T02:59:11.653Z,3
2023-01-17T03:00:12.640Z,3
2023-01-17T03:01:13.734Z,3
2023-01-17T03:02:14.808Z,2.9
2023-01-17T03:03:15.654Z,2.8
2023-01-17T03:04:16.713Z,2.8
2023-01-17T03:05:19.580Z,2.9
2023-01-17T03:06:18.657Z,2.9
2023-01-17T03:07:19.693Z,2.9
2023-01-17T03:08:20.633Z,3
2023-01-17T03:09:21.620Z,3
2023-01-17T03:10:22.576Z,3
2023-01-17T03:11:23.642Z,3
2023-01-17T03:12:24.716Z,3
2023-01-17T03:13:25.664Z,3.1
2023-01-17T03:14:26.655Z,3.1
2023-01-17T03:15:27.640Z,3.2
2023-01-17T03:16:28.660Z,3.2
2023-01-17T03:17:29.719Z,3.1
2023-01-17T03:18:30.654Z,3.1
2023-01-17T03:19:31.675Z,3
2023-01-17T03:20:32.657Z,3
2023-01-17T03:21:33.656Z,2.9
2023-01-17T03:22:34.694Z,3
2023-01-17T03:23:35.661Z,3.1
2023-01-17T03:24:36.622Z,3.3
2023-01-17T03:25:37.692Z,3.4
2023-01-17T03:26:38.657Z,3.4
2023-01-17T03:27:39.663Z,3.5
2023-01-17T03:28:40.655Z,3.6
2023-01-17T03:29:41.652Z,3.7
2023-01-17T03:30:42.730Z,3.7
2023-01-17T03:31:43.656Z,3.6
2023-01-17T03:32:44.723Z,3.5
2023-01-17T03:33:45.713Z,3.6
2023-01-17T03:34:46.570Z,3.6
2023-01-17T03:35:48.054Z,3.8
2023-01-17T03:36:49.674Z,3.8
2023-01-17T03:37:50.637Z,3.8
2023-01-17T03:38:51.619Z,3.9
2023-01-17T03:39:52.679Z,3.9
2023-01-17T03:40:53.693Z,3.8
2023-01-17T03:41:54.713Z,3.8
2023-01-17T03:42:55.695Z,3.7
2023-01-17T03:43:56.654Z,3.7
2023-01-17T03:44:57.638Z,3.8
2023-01-17T03:45:58.696Z,3.8
2023-01-17T03:46:59.694Z,3.8
2023-01-17T03:48:00.684Z,3.9
2023-01-17T03:49:01.666Z,3.9
2023-01-17T03:50:02.695Z,3.9
2023-01-17T03:51:03.705Z,3.9
2023-01-17T03:52:04.672Z,3.8
2023-01-17T03:53:05.675Z,3.7
2023-01-17T03:54:06.652Z,3.8
2023-01-17T03:55:07.673Z,3.7
2023-01-17T03:56:08.713Z,3.8
2023-01-17T03:57:09.673Z,3.8
2023-01-17T03:58:10.718Z,3.9
2023-01-17T03:59:13.221Z,3.8
2023-01-17T04:00:12.673Z,3.9
2023-01-17T04:01:13.984Z,3.9
2023-01-17T04:02:14.799Z,4
2023-01-17T04:03:15.686Z,4.1
2023-01-17T04:04:16.754Z,4.2
2023-01-17T04:05:17.676Z,4.2
2023-01-17T04:06:18.695Z,4.2
2023-01-17T04:07:19.694Z,4.2
2023-01-17T04:08:20.673Z,4.2
2023-01-17T04:09:21.612Z,4.2
2023-01-17T04:10:25.701Z,4.1
2023-01-17T04:11:26.654Z,4.2
2023-01-17T04:12:27.661Z,4.2
2023-01-17T04:13:28.673Z,4.3
2023-01-17T04:14:29.714Z,4.3
2023-01-17T04:15:30.652Z,4.2
2023-01-17T04:16:31.747Z,4.2
2023-01-17T04:17:32.653Z,4.3
2023-01-17T04:18:33.741Z,4.3
2023-01-17T04:19:34.677Z,4.4
2023-01-17T04:20:35.673Z,4.4
2023-01-17T04:21:36.694Z,4.4
2023-01-17T04:22:37.673Z,4.3
2023-01-17T04:23:38.749Z,4.3
2023-01-17T04:24:39.654Z,4.3
2023-01-17T04:25:40.693Z,4.3
2023-01-17T04:26:41.672Z,4.2
2023-01-17T04:27:42.644Z,4.2
2023-01-17T04:28:43.750Z,4.1
2023-01-17T04:29:46.644Z,4
2023-01-17T04:30:45.761Z,4.1
2023-01-17T04:31:46.793Z,4.1
2023-01-17T04:32:48.040Z,4.1
2023-01-17T04:33:49.744Z,4
2023-01-17T04:34:50.693Z,4
2023-01-17T04:35:51.733Z,4.1
2023-01-17T04:36:52.693Z,4.1
2023-01-17T04:37:53.702Z,4.1
2023-01-17T04:38:54.723Z,4.1
2023-01-17T04:39:55.694Z,4
2023-01-17T04:40:56.720Z,4
2023-01-17T04:41:57.658Z,4
2023-01-17T04:42:58.714Z,3.9
2023-01-17T04:43:59.695Z,3.8
2023-01-17T04:45:00.692Z,3.7
2023-01-17T04:46:01.746Z,3.7
2023-01-17T04:47:02.693Z,3.7
2023-01-17T04:48:03.753Z,3.7
2023-01-17T04:49:04.700Z,3.7
2023-01-17T04:50:05.705Z,3.7
2023-01-17T04:51:06.710Z,3.7
2023-01-17T04:52:07.675Z,3.7
2023-01-17T04:53:08.753Z,3.6
2023-01-17T04:54:09.693Z,3.6
2023-01-17T04:55:10.763Z,3.5
2023-01-17T04:56:11.716Z,3.3
2023-01-17T04:57:12.702Z,3.2
2023-01-17T04:58:13.755Z,3.2
2023-01-17T04:59:14.693Z,3.1
2023-01-17T05:00:15.694Z,3.2
2023-01-17T05:01:16.755Z,3.1
2023-01-17T05:02:17.700Z,3.2
2023-01-17T05:03:18.737Z,3.2
2023-01-17T05:04:19.735Z,3.4
2023-01-17T05:05:20.678Z,3.4
2023-01-17T05:06:21.694Z,3.4
2023-01-17T05:07:22.706Z,3.4
2023-01-17T05:08:23.751Z,3.3
2023-01-17T05:09:24.696Z,3.3
2023-01-17T05:10:25.743Z,3.3
2023-01-17T05:11:26.713Z,3.2
2023-01-17T05:12:27.705Z,3.1
2023-01-17T05:13:28.723Z,3.1
2023-01-17T05:14:29.733Z,3.1
2023-01-17T05:15:30.735Z,3.1
2023-01-17T05:16:31.699Z,3.1
2023-01-17T05:17:32.753Z,3
2023-01-17T05:18:33.675Z,3
2023-01-17T05:19:34.746Z,3
2023-01-17T05:20:35.763Z,3
2023-01-17T05:21:36.665Z,3
2023-01-17T05:22:37.673Z,3
2023-01-17T05:23:38.689Z,3.1
2023-01-17T05:24:39.673Z,3
2023-01-17T05:25:40.713Z,3
2023-01-17T05:26:41.691Z,3.1
2023-01-17T05:27:42.704Z,3.1
2023-01-17T05:28:43.695Z,3.1
2023-01-17T05:29:44.738Z,3
2023-01-17T05:30:45.727Z,3.1
2023-01-17T05:31:46.712Z,3.1
2023-01-17T05:32:48.115Z,3
2023-01-17T05:33:49.733Z,2.9
2023-01-17T05:34:50.822Z,2.9
2023-01-17T05:35:51.714Z,3
2023-01-17T05:36:52.643Z,2.9
2023-01-17T05:37:53.713Z,2.8
2023-01-17T05:38:54.720Z,2.8
2023-01-17T05:39:55.732Z,2.8
2023-01-17T05:40:56.723Z,2.8
2023-01-17T05:41:57.694Z,2.9
2023-01-17T05:42:58.696Z,2.9
2023-01-17T05:43:59.792Z,2.9
2023-01-17T05:45:00.724Z,2.9
2023-01-17T05:46:01.746Z,2.8
2023-01-17T05:47:02.738Z,2.8
2023-01-17T05:48:03.705Z,2.8
2023-01-17T05:49:04.754Z,2.9
2023-01-17T05:50:05.797Z,3
2023-01-17T05:51:06.713Z,3
2023-01-17T05:52:07.755Z,3.1
2023-01-17T05:53:08.755Z,3.1
2023-01-17T05:54:09.696Z,3.1
2023-01-17T05:55:10.703Z,3.1
2023-01-17T05:56:11.700Z,3.1
2023-01-17T05:57:12.781Z,3.1
2023-01-17T05:58:13.792Z,3.1
2023-01-17T05:59:14.809Z,3.1
2023-01-17T06:00:15.774Z,3.1
2023-01-17T06:01:16.788Z,3
2023-01-17T06:02:17.770Z,3
2023-01-17T06:03:18.864Z,3.1
2023-01-17T06:04:19.768Z,3
2023-01-17T06:05:20.753Z,3
2023-01-17T06:06:21.694Z,3
2023-01-17T06:07:22.753Z,3.1
2023-01-17T06:08:24.114Z,3.1
2023-01-17T06:09:24.754Z,3
2023-01-17T06:10:25.695Z,3
2023-01-17T06:11:26.722Z,3
2023-01-17T06:12:27.713Z,3
2023-01-17T06:13:28.792Z,3.2
2023-01-17T06:14:29.735Z,3.3
2023-01-17T06:15:30.788Z,3.4
2023-01-17T06:16:31.733Z,3.5
2023-01-17T06:17:32.714Z,3.6
2023-01-17T06:18:33.739Z,3.6
2023-01-17T06:19:34.793Z,3.5
2023-01-17T06:20:35.721Z,3.5
2023-01-17T06:21:36.690Z,3.6
2023-01-17T06:22:37.738Z,3.7
2023-01-17T06:23:38.728Z,3.8
2023-01-17T06:24:39.704Z,3.8
2023-01-17T06:25:40.767Z,3.9
2023-01-17T06:26:41.752Z,3.8
2023-01-17T06:27:42.696Z,3.8
2023-01-17T06:28:43.746Z,3.7
2023-01-17T06:29:44.715Z,3.6
2023-01-17T06:30:45.802Z,3.5
2023-01-17T06:31:46.699Z,3.5
2023-01-17T06:32:48.161Z,3.5
2023-01-17T06:33:49.702Z,3.6
2023-01-17T06:34:50.702Z,3.7
2023-01-17T06:35:51.762Z,3.7
2023-01-17T06:36:52.703Z,3.6
2023-01-17T06:37:54.731Z,3.7
2023-01-17T06:38:55.733Z,3.7
2023-01-17T06:39:56.793Z,3.7
2023-01-17T06:40:57.754Z,3.7
2023-01-17T06:41:58.657Z,3.8
2023-01-17T06:42:59.752Z,3.8
2023-01-17T06:44:00.722Z,3.8
2023-01-17T06:45:01.774Z,3.8
2023-01-17T06:46:02.732Z,3.8
2023-01-17T06:47:03.713Z,3.8
2023-01-17T06:48:04.712Z,3.8
2023-01-17T06:49:05.758Z,3.8
2023-01-17T06:50:06.733Z,3.9
2023-01-17T06:51:07.833Z,3.9
2023-01-17T06:52:08.747Z,3.9
2023-01-17T06:53:09.733Z,4
2023-01-17T06:54:10.743Z,4.1
2023-01-17T06:55:11.733Z,4.2
2023-01-17T06:56:12.751Z,4.2
2023-01-17T06:57:13.763Z,4.2
2023-01-17T06:58:14.718Z,4.2
2023-01-17T06:59:15.743Z,4.4
2023-01-17T07:00:16.734Z,4.5
2023-01-17T07:01:18.646Z,4.5
2023-01-17T07:02:19.842Z,4.6
2023-01-17T07:03:20.760Z,4.7
2023-01-17T07:04:21.787Z,4.7
2023-01-17T07:05:22.761Z,4.8
2023-01-17T07:06:23.770Z,4.8
2023-01-17T07:07:24.725Z,4.8
2023-01-17T07:08:25.962Z,4.7
2023-01-17T07:09:26.811Z,4.6
2023-01-17T07:10:27.758Z,4.7
2023-01-17T07:11:28.792Z,4.7
2023-01-17T07:12:29.740Z,4.6
2023-01-17T07:13:31.028Z,4.6
2023-01-17T07:14:32.661Z,4.6
2023-01-17T07:15:33.845Z,4.6
2023-01-17T07:16:34.879Z,4.7
2023-01-17T07:17:35.984Z,4.7
2023-01-17T07:18:36.771Z,4.7
2023-01-17T07:19:37.741Z,4.7
2023-01-17T07:20:38.745Z,4.8
2023-01-17T07:21:39.840Z,4.8
2023-01-17T07:22:40.711Z,4.7
2023-01-17T07:23:41.737Z,4.7
2023-01-17T07:24:42.769Z,4.7
2023-01-17T07:25:43.730Z,4.7
2023-01-17T07:26:44.794Z,4.7
2023-01-17T07:27:45.760Z,4.7
2023-01-17T07:28:46.721Z,4.8
2023-01-17T07:29:48.234Z,4.7
2023-01-17T07:30:49.794Z,4.7
2023-01-17T07:31:50.871Z,4.8
2023-01-17T07:32:51.752Z,4.8
2023-01-17T07:33:52.772Z,4.9
2023-01-17T07:34:53.755Z,4.9
2023-01-17T07:35:54.783Z,4.8
2023-01-17T07:36:55.815Z,4.7
2023-01-17T07:37:56.755Z,4.5
2023-01-17T07:38:57.815Z,4.5
2023-01-17T07:39:58.744Z,4.5
2023-01-17T07:40:59.954Z,4.5
2023-01-17T07:42:01.806Z,4.6
2023-01-17T07:43:02.737Z,4.5
2023-01-17T07:44:03.813Z,4.5
2023-01-17T07:45:04.771Z,4.5
2023-01-17T07:46:05.791Z,4.5
2023-01-17T07:47:06.916Z,4.4
2023-01-17T07:48:07.756Z,4.5
2023-01-17T07:49:08.812Z,4.4
2023-01-17T07:50:09.820Z,4.4
2023-01-17T07:51:10.790Z,4.4
2023-01-17T07:52:11.814Z,4.4
2023-01-17T07:53:12.739Z,4.4
2023-01-17T07:54:13.861Z,4.5
2023-01-17T07:55:15.131Z,4.4
2023-01-17T07:56:17.353Z,4.4
2023-01-17T07:57:18.801Z,4.5
2023-01-17T07:58:19.804Z,4.5
2023-01-17T07:59:20.751Z,4.5
2023-01-17T08:00:21.945Z,4.6
2023-01-17T08:01:23.855Z,4.6
2023-01-17T08:02:24.839Z,4.6
2023-01-17T08:03:25.770Z,4.7
2023-01-17T08:04:26.783Z,4.7
2023-01-17T08:05:27.791Z,4.7
2023-01-17T08:06:28.781Z,4.7
2023-01-17T08:07:29.799Z,4.7
2023-01-17T08:08:30.751Z,4.7
2023-01-17T08:09:31.849Z,4.8
2023-01-17T08:10:32.821Z,4.8
2023-01-17T08:11:33.772Z,4.8
2023-01-17T08:12:34.772Z,4.9
2023-01-17T08:13:35.755Z,4.9
2023-01-17T08:14:36.810Z,4.9
2023-01-17T08:15:37.791Z,4.9
2023-01-17T08:16:38.833Z,5
2023-01-17T08:17:39.781Z,5
2023-01-17T08:18:40.791Z,5.1
2023-01-17T08:19:41.830Z,5.1
2023-01-17T08:20:42.791Z,5.2
2023-01-17T08:21:43.831Z,5.1
2023-01-17T08:22:44.835Z,5.1
2023-01-17T08:23:45.878Z,5
2023-01-17T08:24:46.814Z,5
2023-01-17T08:25:48.314Z,5.1
2023-01-17T08:26:49.877Z,5.1
2023-01-17T08:27:50.917Z,5.1
2023-01-17T08:28:51.813Z,5.1
2023-01-17T08:29:52.791Z,5.1
2023-01-17T08:30:53.798Z,5.2
2023-01-17T08:31:54.853Z,5.2
2023-01-17T08:32:55.852Z,5.1
2023-01-17T08:33:56.757Z,5.1
2023-01-17T08:34:57.774Z,5.1
2023-01-17T08:35:58.818Z,5.1
2023-01-17T08:36:59.758Z,5.2
2023-01-17T08:38:00.874Z,5.2
2023-01-17T08:39:01.792Z,5.2
2023-01-17T08:40:02.811Z,5.4
2023-01-17T08:41:03.777Z,5.4
2023-01-17T08:42:04.810Z,5.5
2023-01-17T08:43:05.815Z,5.5
2023-01-17T08:44:06.830Z,5.5
2023-01-17T08:45:07.842Z,5.4
2023-01-17T08:46:08.791Z,5.4
2023-01-17T08:47:09.812Z,5.2
2023-01-17T08:48:10.812Z,5.1
2023-01-17T08:49:11.793Z,5
2023-01-17T08:50:12.812Z,4.8
2023-01-17T08:51:13.860Z,4.7
2023-01-17T08:52:14.812Z,4.7
2023-01-17T08:53:15.820Z,4.6
2023-01-17T08:54:16.874Z,4.6
2023-01-17T08:55:17.819Z,4.6
2023-01-17T08:56:18.800Z,4.5
2023-01-17T08:57:19.811Z,4.6
2023-01-17T08:58:20.831Z,4.6
2023-01-17T08:59:21.790Z,4.6
2023-01-17T09:00:22.829Z,4.6
2023-01-17T09:01:24.000Z,4.6
2023-01-17T09:02:24.800Z,4.7
2023-01-17T09:03:25.808Z,4.7
2023-01-17T09:04:26.850Z,4.8
2023-01-17T09:05:27.817Z,4.9
2023-01-17T09:06:28.838Z,4.9
2023-01-17T09:07:29.841Z,5
2023-01-17T09:08:30.835Z,5.1
2023-01-17T09:09:31.800Z,5.2
2023-01-17T09:10:32.814Z,5.4
2023-01-17T09:11:33.811Z,5.4
2023-01-17T09:12:34.776Z,5.4
2023-01-17T09:13:36.333Z,5.5
2023-01-17T09:14:37.851Z,5.4
2023-01-17T09:15:38.775Z,5.5
2023-01-17T09:16:39.916Z,5.5
2023-01-17T09:17:40.853Z,5.4
2023-01-17T09:18:41.902Z,5.5
2023-01-17T09:19:42.832Z,5.5
2023-01-17T09:20:43.798Z,5.6
2023-01-17T09:21:44.812Z,5.6
2023-01-17T09:22:46.213Z,5.6
2023-01-17T09:23:46.859Z,5.7
2023-01-17T09:24:48.353Z,5.8
2023-01-17T09:25:49.831Z,5.8
2023-01-17T09:26:50.804Z,5.8
2023-01-17T09:27:51.840Z,5.8
2023-01-17T09:28:52.863Z,5.8
2023-01-17T09:29:53.910Z,5.8
2023-01-17T09:30:54.889Z,5.7
2023-01-17T09:31:55.846Z,5.7
2023-01-17T09:32:56.819Z,5.6
2023-01-17T09:33:57.832Z,5.6
2023-01-17T09:34:58.838Z,5.6
2023-01-17T09:35:59.852Z,5.6
2023-01-17T09:37:00.975Z,5.7
2023-01-17T09:38:01.833Z,5.7
2023-01-17T09:39:02.921Z,5.9
2023-01-17T09:40:03.804Z,5.9
2023-01-17T09:41:04.893Z,6
2023-01-17T09:42:05.861Z,6.1
2023-01-17T09:43:06.832Z,6.3
2023-01-17T09:44:07.834Z,6.5
2023-01-17T09:45:08.831Z,6.6
2023-01-17T09:46:09.931Z,6.7
2023-01-17T09:47:10.864Z,6.8
2023-01-17T09:48:11.834Z,6.9
2023-01-17T09:49:12.874Z,7
2023-01-17T09:50:13.852Z,7.2
2023-01-17T09:51:15.219Z,7.3
2023-01-17T09:52:16.873Z,7.4
2023-01-17T09:53:17.831Z,7.4
2023-01-17T09:54:18.849Z,7.3
2023-01-17T09:55:19.832Z,7.3
2023-01-17T09:56:20.831Z,7.3
2023-01-17T09:57:21.876Z,7.3
2023-01-17T09:58:22.951Z,7.4
2023-01-17T09:59:32.118Z,7.3
2023-01-17T10:00:24.892Z,7.3
2023-01-17T10:01:25.985Z,7.3
2023-01-17T10:02:27.099Z,7.1
2023-01-17T10:03:28.034Z,7.2
2023-01-17T10:04:28.884Z,7.3
2023-01-17T10:05:29.834Z,7.5
2023-01-17T10:06:30.855Z,7.6
2023-01-17T10:07:31.934Z,7.6
2023-01-17T10:08:32.871Z,7.7
2023-01-17T10:09:33.932Z,7.5
2023-01-17T10:10:34.834Z,7.3
2023-01-17T10:11:35.831Z,7.2
2023-01-17T10:12:36.835Z,7
2023-01-17T10:13:37.856Z,6.9
2023-01-17T10:14:38.815Z,6.7
2023-01-17T10:15:40.231Z,6.5
2023-01-17T10:16:40.967Z,6.5
2023-01-17T10:17:41.840Z,6.5
2023-01-17T10:18:42.838Z,6.5
2023-01-17T10:19:43.816Z,6.5
2023-01-17T10:20:44.875Z,6.6
2023-01-17T10:21:45.893Z,6.5
2023-01-17T10:22:46.872Z,6.5
2023-01-17T10:23:47.840Z,6.4
2023-01-17T10:24:48.854Z,6.3
2023-01-17T10:25:49.863Z,6.3
2023-01-17T10:26:50.932Z,6.2
2023-01-17T10:27:51.872Z,6
2023-01-17T10:28:52.945Z,5.9
2023-01-17T10:29:53.817Z,5.9
2023-01-17T10:30:54.945Z,5.8
2023-01-17T10:31:55.856Z,5.7
2023-01-17T10:32:56.876Z,5.6
2023-01-17T10:33:57.881Z,5.6
2023-01-17T10:34:58.878Z,5.6
2023-01-17T10:35:59.894Z,5.6
2023-01-17T10:37:00.892Z,5.7
2023-01-17T10:38:01.859Z,5.8
2023-01-17T10:39:02.853Z,5.8
2023-01-17T10:40:03.926Z,5.9
2023-01-17T10:41:04.876Z,6.1
2023-01-17T10:42:05.878Z,6.3
2023-01-17T10:43:06.852Z,6.6
2023-01-17T10:44:07.856Z,6.7
2023-01-17T10:45:08.877Z,6.9
2023-01-17T10:46:09.930Z,6.9
2023-01-17T10:47:10.851Z,6.9
2023-01-17T10:48:11.870Z,6.9
2023-01-17T10:49:12.855Z,7
2023-01-17T10:50:13.953Z,7.1
2023-01-17T10:51:14.859Z,7.2
2023-01-17T10:52:15.903Z,7.1
2023-01-17T10:53:16.920Z,6.9
2023-01-17T10:54:17.851Z,6.9
2023-01-17T10:55:18.912Z,7
2023-01-17T10:56:19.898Z,7.1
2023-01-17T10:57:20.911Z,7.3
2023-01-17T10:58:21.894Z,7.5
2023-01-17T10:59:22.871Z,7.8
2023-01-17T11:00:23.848Z,7.9
2023-01-17T11:01:24.972Z,8
2023-01-17T11:02:26.072Z,8
2023-01-17T11:03:26.876Z,8
2023-01-17T11:04:27.925Z,7.8
2023-01-17T11:05:28.833Z,7.7
2023-01-17T11:06:29.859Z,7.7
2023-01-17T11:07:30.832Z,7.7
2023-01-17T11:08:31.870Z,7.7
2023-01-17T11:09:32.890Z,7.7
2023-01-17T11:10:33.900Z,7.7
2023-01-17T11:11:34.871Z,7.6
2023-01-17T11:12:35.892Z,7.5
2023-01-17T11:13:36.872Z,7.6
2023-01-17T11:14:37.870Z,7.6
2023-01-17T11:15:38.897Z,7.5
2023-01-17T11:16:39.891Z,7.6
2023-01-17T11:17:40.879Z,7.7
2023-01-17T11:18:41.956Z,7.9
2023-01-17T11:19:42.915Z,8
2023-01-17T11:20:43.897Z,8.1
2023-01-17T11:21:45.788Z,8.2
2023-01-17T11:22:45.873Z,8.3
2023-01-17T11:23:46.872Z,8.4
2023-01-17T11:24:47.915Z,8.5
2023-01-17T11:25:48.934Z,8.4
2023-01-17T11:26:49.872Z,8.4
2023-01-17T11:27:50.911Z,8.4
2023-01-17T11:28:51.913Z,8.1
2023-01-17T11:29:52.871Z,8
2023-01-17T11:30:53.896Z,8
2023-01-17T11:31:54.913Z,7.9
2023-01-17T11:32:55.892Z,8
2023-01-17T11:33:56.954Z,8.1
2023-01-17T11:34:57.895Z,8.1
2023-01-17T11:35:58.891Z,8.1
2023-01-17T11:36:59.892Z,8.1
2023-01-17T11:38:00.871Z,8.1
2023-01-17T11:39:02.058Z,8.4
2023-01-17T11:40:02.917Z,8.6
2023-01-17T11:41:03.903Z,8.9
2023-01-17T11:42:04.872Z,9.1
2023-01-17T11:43:05.919Z,9.2
2023-01-17T11:44:06.909Z,9.2
2023-01-17T11:45:07.879Z,9.2
2023-01-17T11:46:08.898Z,9.2
2023-01-17T11:47:09.878Z,9.3
2023-01-17T11:48:10.865Z,9.3
2023-01-17T11:49:11.914Z,9.3
2023-01-17T11:50:12.883Z,9.2
2023-01-17T11:51:13.942Z,9.2
2023-01-17T11:52:14.899Z,9.1
2023-01-17T11:53:15.912Z,9.2
2023-01-17T11:54:16.844Z,9
2023-01-17T11:55:17.891Z,8.8
2023-01-17T11:56:18.945Z,8.7
2023-01-17T11:57:19.851Z,8.5
2023-01-17T11:58:20.892Z,8.4
2023-01-17T11:59:22.017Z,8.3
2023-01-17T12:00:22.913Z,8.4
2023-01-17T12:01:24.009Z,8.4
2023-01-17T12:02:24.889Z,8.5
2023-01-17T12:03:25.951Z,8.5
2023-01-17T12:04:26.936Z,8.5
2023-01-17T12:05:27.891Z,8.6
2023-01-17T12:06:28.901Z,8.7
2023-01-17T12:07:29.912Z,8.8
2023-01-17T12:08:30.913Z,8.8
2023-01-17T12:09:32.335Z,8.8
2023-01-17T12:10:33.931Z,8.6
2023-01-17T12:11:34.891Z,8.6
2023-01-17T12:12:35.910Z,8.7
2023-01-17T12:13:36.912Z,8.7
2023-01-17T12:14:37.997Z,8.6
2023-01-17T12:15:38.921Z,8.4
2023-01-17T12:16:39.900Z,8.3
2023-01-17T12:17:40.890Z,8.3
2023-01-17T12:18:41.894Z,8.4
2023-01-17T12:19:42.931Z,8.4
2023-01-17T12:20:43.879Z,8.6
2023-01-17T12:21:44.977Z,8.7
2023-01-17T12:22:45.873Z,8.6
2023-01-17T12:23:46.869Z,8.7
2023-01-17T12:24:47.891Z,8.6
2023-01-17T12:25:48.913Z,8.7
2023-01-17T12:26:49.982Z,8.5
2023-01-17T12:27:50.935Z,8.6
2023-01-17T12:28:51.912Z,8.6
2023-01-17T12:29:52.938Z,8.6
2023-01-17T12:30:53.955Z,8.6
2023-01-17T12:31:54.948Z,8.7
2023-01-17T12:32:55.953Z,8.7
2023-01-17T12:33:56.931Z,8.8
2023-01-17T12:34:57.932Z,8.7
2023-01-17T12:35:58.925Z,8.5
2023-01-17T12:36:59.895Z,8.3
2023-01-17T12:38:05.060Z,8.1
2023-01-17T12:39:01.938Z,8.1
2023-01-17T12:40:02.912Z,7.9
2023-01-17T12:41:03.916Z,7.9
2023-01-17T12:42:04.948Z,7.9
2023-01-17T12:43:05.910Z,8
2023-01-17T12:44:06.931Z,8.1
2023-01-17T12:45:07.955Z,8.2
2023-01-17T12:46:08.912Z,8.4
2023-01-17T12:47:09.931Z,8.4
2023-01-17T12:48:10.926Z,8.3
2023-01-17T12:49:11.914Z,8.1
2023-01-17T12:50:12.950Z,8.2
2023-01-17T12:51:13.932Z,8.2
2023-01-17T12:52:14.992Z,8.3
2023-01-17T12:53:15.915Z,8.6
2023-01-17T12:54:16.938Z,8.6
2023-01-17T12:55:17.890Z,8.6
2023-01-17T12:56:20.692Z,8.6
2023-01-17T12:57:22.510Z,8.7
2023-01-17T12:58:23.952Z,8.7
2023-01-17T12:59:24.931Z,8.6
2023-01-17T13:00:25.948Z,8.5
2023-01-17T13:01:27.007Z,8.4
2023-01-17T13:02:28.035Z,8.5
2023-01-17T13:03:28.930Z,8.5
2023-01-17T13:04:32.972Z,8.7
2023-01-17T13:05:33.899Z,8.9
2023-01-17T13:06:34.935Z,8.9
2023-01-17T13:07:35.932Z,9
2023-01-17T13:08:36.931Z,9.1
2023-01-17T13:09:37.943Z,9
2023-01-17T13:10:38.970Z,9
2023-01-17T13:11:39.895Z,9.1
2023-01-17T13:12:41.031Z,9.2
2023-01-17T13:13:41.999Z,9.2
2023-01-17T13:14:42.970Z,9.1
2023-01-17T13:15:43.951Z,8.9
2023-01-17T13:16:44.951Z,8.6
2023-01-17T13:17:45.990Z,8.4
2023-01-17T13:18:46.959Z,8.3
2023-01-17T13:19:47.959Z,8.4
2023-01-17T13:20:48.914Z,8.4
2023-01-17T13:21:49.959Z,8.3
2023-01-17T13:22:50.934Z,8.3
2023-01-17T13:23:51.930Z,8.4
2023-01-17T13:24:52.931Z,8.2
2023-01-17T13:25:53.994Z,8.1
2023-01-17T13:26:54.927Z,8.1
2023-01-17T13:27:56.044Z,8
2023-01-17T13:28:56.971Z,7.9
2023-01-17T13:29:57.933Z,7.8
2023-01-17T13:30:58.927Z,7.8
2023-01-17T13:31:59.971Z,7.9
2023-01-17T13:33:00.991Z,7.9
2023-01-17T13:34:01.943Z,7.9
2023-01-17T13:35:02.953Z,8
2023-01-17T13:36:03.952Z,8.2
2023-01-17T13:37:04.995Z,8.2
2023-01-17T13:38:05.990Z,8.2
2023-01-17T13:39:06.975Z,8.2
2023-01-17T13:40:07.941Z,8.2
2023-01-17T13:41:08.972Z,8.3
2023-01-17T13:42:09.932Z,8.3
2023-01-17T13:43:10.979Z,8.3
2023-01-17T13:44:11.883Z,8.3
2023-01-17T13:45:12.933Z,8.1
2023-01-17T13:46:14.072Z,8
2023-01-17T13:47:14.997Z,8.1
2023-01-17T13:48:15.933Z,8.1
2023-01-17T13:49:16.971Z,8.2
2023-01-17T13:50:17.936Z,8.2
2023-01-17T13:51:19.012Z,8.2
2023-01-17T13:52:20.017Z,8.1
2023-01-17T13:53:20.972Z,8.1
2023-01-17T13:54:21.951Z,8
2023-01-17T13:55:22.924Z,7.9
2023-01-17T13:56:23.951Z,7.8
2023-01-17T13:57:24.982Z,7.8
2023-01-17T13:58:25.996Z,7.7
2023-01-17T13:59:26.941Z,7.7
2023-01-17T14:00:27.984Z,7.8
2023-01-17T14:01:29.049Z,7.8
2023-01-17T14:02:29.951Z,7.7
2023-01-17T14:03:30.927Z,7.6
2023-01-17T14:04:31.950Z,7.4
2023-01-17T14:05:32.960Z,7.3
2023-01-17T14:06:33.921Z,7.2
2023-01-17T14:07:34.903Z,7.2
2023-01-17T14:08:35.981Z,7.2
2023-01-17T14:09:36.929Z,7.3
2023-01-17T14:10:37.958Z,7.4